createdAt,value
2022-10-12T00:03:19.160Z,10.90
2022-10-12T00:08:22.972Z,11.13
2022-10-12T00:13:25.621Z,11.82
2022-10-12T00:18:28.016Z,11.10
2022-10-12T00:23:31.979Z,14.38
2022-10-12T00:28:35.012Z,10.52
2022-10-12T00:33:39.055Z,10.00
2022-10-12T00:38:42.943Z,9.73
2022-10-12T00:43:46.933Z,9.70
2022-10-12T00:48:51.966Z,10.02
2022-10-12T00:53:59.349Z,10.82
2022-10-12T00:59:03.429Z,11.07
2022-10-12T01:04:06.566Z,8.82
2022-10-12T01:09:10.294Z,9.95
2022-10-12T01:19:25.552Z,8.57
2022-10-12T01:24:35.852Z,9.18
2022-10-12T01:29:57.290Z,7.20
2022-10-12T01:35:03.113Z,9.07
2022-10-12T01:40:08.566Z,10.15
2022-10-12T01:45:13.193Z,9.57
2022-10-12T01:50:16.495Z,9.95
2022-10-12T01:55:22.920Z,9.52
2022-10-12T02:00:26.718Z,10.20
2022-10-12T02:05:35.492Z,8.55
2022-10-12T02:10:39.851Z,8.60
2022-10-12T02:15:44.900Z,9.10
2022-10-12T02:20:47.725Z,8.02
2022-10-12T02:26:10.754Z,8.60
2022-10-12T02:31:19.722Z,9.38
2022-10-12T02:36:26.925Z,9.65
2022-10-12T02:41:31.536Z,8.85
2022-10-12T02:46:35.861Z,8.50
2022-10-12T02:51:41.407Z,8.20
2022-10-12T02:56:45.182Z,7.70
2022-10-12T03:01:49.119Z,7.40
2022-10-12T03:06:51.667Z,8.50
2022-10-12T03:11:54.007Z,7.68
2022-10-12T03:16:57.811Z,7.70
2022-10-12T03:22:00.357Z,7.25
2022-10-12T03:27:03.821Z,8.57
2022-10-12T03:32:07.702Z,8.88
2022-10-12T03:37:10.461Z,8.15
2022-10-12T03:42:14.047Z,7.90
2022-10-12T03:47:17.813Z,8.25
2022-10-12T03:57:22.887Z,8.40
2022-10-12T04:02:26.631Z,7.95
2022-10-12T04:12:31.223Z,7.97
2022-10-12T04:17:35.008Z,8.43
2022-10-12T04:22:37.555Z,10.25
2022-10-12T04:27:40.528Z,8.00
2022-10-12T04:32:45.499Z,9.98
2022-10-12T04:37:48.911Z,11.10
2022-10-12T04:42:52.448Z,11.95
2022-10-12T04:47:56.221Z,10.00
2022-10-12T04:58:01.666Z,11.05
2022-10-12T05:03:06.093Z,9.35
2022-10-12T05:08:29.223Z,11.73
2022-10-12T05:13:31.744Z,10.60
2022-10-12T05:18:35.587Z,10.93
2022-10-12T05:23:37.959Z,10.10
2022-10-12T05:28:41.357Z,10.70
2022-10-12T05:33:46.229Z,12.15
2022-10-12T05:38:49.949Z,11.05
2022-10-12T05:48:56.998Z,11.10
2022-10-12T05:59:21.722Z,10.82
2022-10-12T06:04:25.475Z,10.43
2022-10-12T06:09:27.885Z,10.20
2022-10-12T06:14:30.222Z,10.88
2022-10-12T06:19:34.380Z,11.57
2022-10-12T06:24:37.434Z,15.18
2022-10-12T06:29:39.798Z,12.38
2022-10-12T06:34:45.355Z,13.45
2022-10-12T06:39:49.732Z,12.20
2022-10-12T06:44:52.309Z,12.60
2022-10-12T06:49:56.054Z,14.45
2022-10-12T06:54:58.484Z,16.35
2022-10-12T07:00:00.889Z,16.38
2022-10-12T07:05:04.929Z,18.35
2022-10-12T07:10:07.539Z,19.10
2022-10-12T07:15:10.306Z,16.88
2022-10-12T07:20:14.138Z,10.63
2022-10-12T07:25:16.583Z,9.13
2022-10-12T07:30:19.026Z,8.23
2022-10-12T07:35:22.846Z,8.95
2022-10-12T07:40:26.261Z,9.40
2022-10-12T07:45:29.471Z,9.80
2022-10-12T07:50:33.391Z,9.38
2022-10-12T07:55:35.759Z,9.95
2022-10-12T08:00:38.103Z,10.82
2022-10-12T08:05:42.253Z,10.20
2022-10-12T08:10:44.959Z,9.65
2022-10-12T08:15:49.422Z,10.53
2022-10-12T08:20:53.258Z,10.27
2022-10-12T08:25:56.274Z,10.73
2022-10-12T08:30:58.643Z,9.00
2022-10-12T08:36:04.138Z,8.38
2022-10-12T08:41:16.361Z,7.57
2022-10-12T08:46:19.749Z,7.70
2022-10-12T08:56:25.770Z,7.15
2022-10-12T09:01:30.415Z,6.20
2022-10-12T09:06:35.447Z,5.82
2022-10-12T09:11:49.950Z,13.32
2022-10-12T09:16:52.973Z,5.78
2022-10-12T09:21:57.352Z,5.32
2022-10-12T09:27:07.301Z,6.13
2022-10-12T09:32:16.275Z,5.30
2022-10-12T09:37:20.766Z,5.22
2022-10-12T09:42:24.642Z,4.90
2022-10-12T09:47:28.528Z,6.50
2022-10-12T09:52:41.229Z,5.70
2022-10-12T09:57:53.540Z,5.30
2022-10-12T10:02:57.468Z,5.25
2022-10-12T10:08:15.913Z,4.93
2022-10-12T10:13:20.401Z,5.30
2022-10-12T10:18:25.319Z,5.80
2022-10-12T10:23:28.823Z,5.50
2022-10-12T10:28:33.144Z,5.70
2022-10-12T10:33:36.334Z,6.07
2022-10-12T10:43:46.137Z,9.52
2022-10-12T10:48:53.332Z,30.27
2022-10-12T10:53:55.691Z,6.75
2022-10-12T10:59:00.999Z,7.53
2022-10-12T11:04:04.601Z,6.25
2022-10-12T11:09:11.567Z,6.20
2022-10-12T11:14:17.080Z,5.10
2022-10-12T11:19:24.277Z,5.90
2022-10-12T11:24:29.143Z,5.28
2022-10-12T11:29:34.588Z,5.70
2022-10-12T11:34:42.878Z,5.40
2022-10-12T11:39:47.965Z,5.25
2022-10-12T11:44:52.351Z,5.25
2022-10-12T11:49:56.678Z,4.53
2022-10-12T11:55:01.622Z,6.18
2022-10-12T12:00:06.972Z,5.15
2022-10-12T12:05:16.253Z,5.93
2022-10-12T12:10:38.188Z,5.47
2022-10-12T12:15:42.865Z,5.28
2022-10-12T12:21:02.075Z,5.97
2022-10-12T12:26:05.900Z,5.07
2022-10-12T12:31:12.456Z,4.13
2022-10-12T12:36:16.450Z,4.60
2022-10-12T12:41:19.518Z,5.05
2022-10-12T12:46:23.657Z,4.82
2022-10-12T12:51:27.681Z,4.00
2022-10-12T12:56:34.107Z,3.70
2022-10-12T13:01:54.341Z,4.10
2022-10-12T13:07:07.091Z,3.55
2022-10-12T13:12:17.706Z,3.65
2022-10-12T13:17:33.657Z,4.45
2022-10-12T13:22:37.808Z,3.22
2022-10-12T13:27:42.252Z,2.72
2022-10-12T13:32:48.801Z,3.10
2022-10-12T13:38:02.146Z,2.85
2022-10-12T13:43:21.259Z,3.80
2022-10-12T13:48:46.474Z,3.25
2022-10-12T13:53:49.374Z,3.40
2022-10-12T13:58:53.431Z,3.47
2022-10-12T14:04:03.201Z,2.53
2022-10-12T14:09:09.439Z,2.70
2022-10-12T14:14:16.038Z,3.22
2022-10-12T14:19:18.965Z,3.70
2022-10-12T14:24:22.846Z,3.67
2022-10-12T14:29:35.823Z,4.07
2022-10-12T14:34:40.726Z,4.17
2022-10-12T14:39:44.861Z,4.35
2022-10-12T14:44:47.495Z,4.55
2022-10-12T14:49:52.893Z,4.85
2022-10-12T14:54:57.625Z,4.68
2022-10-12T15:00:00.191Z,5.05
2022-10-12T15:05:02.523Z,6.00
2022-10-12T15:10:06.809Z,5.45
2022-10-12T15:15:15.861Z,5.28
2022-10-12T15:20:19.200Z,5.07
2022-10-12T15:30:26.194Z,5.43
2022-10-12T15:35:29.747Z,5.88
2022-10-12T15:40:33.102Z,5.65
2022-10-12T15:45:38.525Z,5.13
2022-10-12T15:50:42.122Z,4.90
2022-10-12T15:55:44.729Z,5.25
2022-10-12T16:00:48.625Z,5.93
2022-10-12T16:05:51.055Z,6.50
2022-10-12T16:10:53.520Z,7.33
2022-10-12T16:15:57.219Z,6.90
2022-10-12T16:20:59.629Z,7.40
2022-10-12T16:26:03.756Z,7.10
2022-10-12T16:31:11.027Z,7.68
2022-10-12T16:36:14.892Z,7.32
2022-10-12T16:41:18.739Z,10.85
2022-10-12T16:46:22.466Z,12.60
2022-10-12T16:51:25.015Z,13.15
2022-10-12T16:56:27.510Z,26.93
2022-10-12T17:01:31.420Z,31.08
2022-10-12T17:06:34.000Z,19.75
2022-10-12T17:11:39.415Z,20.10
2022-10-12T17:16:52.410Z,14.48
2022-10-12T17:21:56.360Z,14.82
2022-10-12T17:26:59.843Z,15.80
2022-10-12T17:37:07.285Z,11.60
2022-10-12T17:42:10.175Z,14.48
2022-10-12T17:47:12.894Z,14.63
2022-10-12T17:52:17.321Z,24.33
2022-10-12T17:57:20.535Z,17.33
2022-10-12T18:02:23.201Z,18.85
2022-10-12T18:07:27.037Z,13.82
2022-10-12T18:12:29.493Z,11.18
2022-10-12T18:17:33.217Z,11.80
2022-10-12T18:22:36.966Z,11.15
2022-10-12T18:28:00.311Z,12.68
2022-10-12T18:33:03.327Z,12.32
2022-10-12T18:38:07.168Z,15.88
2022-10-12T18:43:10.513Z,14.23
2022-10-12T18:48:13.475Z,14.80
2022-10-12T18:53:17.332Z,13.98
2022-10-12T18:58:20.217Z,14.95
2022-10-12T19:03:22.709Z,15.43
2022-10-12T19:08:26.394Z,23.63
2022-10-12T19:13:28.751Z,17.45
2022-10-12T19:18:31.082Z,18.08
2022-10-12T19:23:35.298Z,22.77
2022-10-12T19:28:37.917Z,23.90
2022-10-12T19:33:40.477Z,27.20
2022-10-12T19:38:45.843Z,34.55
2022-10-12T19:43:48.264Z,21.08
2022-10-12T19:48:51.670Z,20.55
2022-10-12T19:53:56.377Z,19.38
2022-10-12T19:58:59.282Z,17.05
2022-10-12T20:04:02.185Z,16.87
2022-10-12T20:09:06.682Z,15.97
2022-10-12T20:14:09.155Z,15.48
2022-10-12T20:19:12.625Z,17.50
2022-10-12T20:24:16.458Z,18.35
2022-10-12T20:29:18.805Z,18.23
2022-10-12T20:34:21.251Z,17.95
2022-10-12T20:39:25.018Z,16.48
2022-10-12T20:44:27.417Z,15.45
2022-10-12T20:49:29.804Z,16.85
2022-10-12T20:54:35.605Z,15.95
2022-10-12T20:59:38.323Z,15.73
2022-10-12T21:04:40.801Z,18.07
2022-10-12T21:09:46.624Z,18.23
2022-10-12T21:14:49.012Z,17.88
2022-10-12T21:20:11.545Z,18.15
2022-10-12T21:25:15.350Z,18.65
2022-10-12T21:30:17.670Z,22.05
2022-10-12T21:35:20.070Z,21.35
2022-10-12T21:40:24.559Z,19.50
2022-10-12T21:45:27.011Z,21.48
2022-10-12T21:50:29.616Z,20.80
2022-10-12T21:55:34.457Z,22.23
2022-10-12T22:00:36.856Z,21.17
2022-10-12T22:05:39.597Z,21.50
2022-10-12T22:10:43.422Z,22.87
2022-10-12T22:15:45.795Z,19.92
2022-10-12T22:20:48.236Z,19.15
2022-10-12T22:25:52.097Z,21.08
2022-10-12T22:30:54.525Z,19.58
2022-10-12T22:35:57.458Z,18.30
2022-10-12T22:41:02.314Z,17.48
2022-10-12T22:46:05.067Z,16.77
2022-10-12T22:51:08.170Z,18.63
2022-10-12T22:56:14.449Z,17.17
2022-10-12T23:01:17.828Z,15.77
2022-10-12T23:06:20.327Z,17.58
2022-10-12T23:11:24.982Z,16.25
2022-10-12T23:16:28.344Z,17.50
2022-10-12T23:21:31.392Z,17.33
2022-10-12T23:26:35.381Z,16.17
2022-10-12T23:31:39.772Z,16.52
2022-10-12T23:36:42.208Z,15.65
2022-10-12T23:41:46.045Z,16.55
2022-10-12T23:46:48.458Z,15.57
2022-10-12T23:51:51.965Z,15.20
